sensor_id;sensor_type;location;lat;lon;timestamp;pressure;altitude;pressure_sealevel;temperature;humidity
25638;BME280;13496;51.040;13.680;2023-12-04T00:00:39;100312.72;;;15.58;57.49
25638;BME280;13496;51.040;13.680;2023-12-04T00:05:44;100313.66;;;15.57;57.39
25638;BME280;13496;51.040;13.680;2023-12-04T00:10:45;100316.44;;;15.55;57.47
25638;BME280;13496;51.040;13.680;2023-12-04T00:15:47;100314.66;;;15.56;57.47
25638;BME280;13496;51.040;13.680;2023-12-04T00:20:49;100308.59;;;15.55;57.46
25638;BME280;13496;51.040;13.680;2023-12-04T00:25:51;100303.53;;;15.54;57.38
25638;BME280;13496;51.040;13.680;2023-12-04T00:30:53;100300.06;;;15.53;57.46
25638;BME280;13496;51.040;13.680;2023-12-04T00:35:55;100293.09;;;15.54;57.46
25638;BME280;13496;51.040;13.680;2023-12-04T00:40:58;100294.03;;;15.53;57.36
25638;BME280;13496;51.040;13.680;2023-12-04T00:45:59;100299.25;;;15.53;57.25
25638;BME280;13496;51.040;13.680;2023-12-04T00:51:01;100297.63;;;15.52;57.44
25638;BME280;13496;51.040;13.680;2023-12-04T00:56:03;100285.53;;;15.51;57.42
25638;BME280;13496;51.040;13.680;2023-12-04T01:01:05;100280.31;;;15.51;57.35
25638;BME280;13496;51.040;13.680;2023-12-04T01:06:07;100292.56;;;15.50;57.25
25638;BME280;13496;51.040;13.680;2023-12-04T01:11:09;100289.09;;;15.49;57.34
25638;BME280;13496;51.040;13.680;2023-12-04T01:16:11;100297.13;;;15.48;57.33
25638;BME280;13496;51.040;13.680;2023-12-04T01:21:13;100291.06;;;15.47;57.41
25638;BME280;13496;51.040;13.680;2023-12-04T01:26:15;100305.78;;;15.48;57.46
25638;BME280;13496;51.040;13.680;2023-12-04T01:31:17;100305.13;;;15.46;57.32
25638;BME280;13496;51.040;13.680;2023-12-04T01:36:19;100307.75;;;15.46;57.35
25638;BME280;13496;51.040;13.680;2023-12-04T01:41:21;100303.47;;;15.45;57.28
25638;BME280;13496;51.040;13.680;2023-12-04T01:46:23;100301.84;;;15.44;57.24
25638;BME280;13496;51.040;13.680;2023-12-04T01:51:26;100298.41;;;15.44;57.28
25638;BME280;13496;51.040;13.680;2023-12-04T01:56:29;100294.97;;;15.43;57.32
25638;BME280;13496;51.040;13.680;2023-12-04T02:01:31;100298.53;;;15.42;57.27
25638;BME280;13496;51.040;13.680;2023-12-04T02:06:34;100281.22;;;15.41;57.40
25638;BME280;13496;51.040;13.680;2023-12-04T02:11:36;100277.94;;;15.39;57.26
25638;BME280;13496;51.040;13.680;2023-12-04T02:16:40;100272.56;;;15.41;57.32
25638;BME280;13496;51.040;13.680;2023-12-04T02:21:43;100267.50;;;15.39;57.33
25638;BME280;13496;51.040;13.680;2023-12-04T02:26:58;100251.00;;;15.39;57.20
25638;BME280;13496;51.040;13.680;2023-12-04T02:32:02;100246.72;;;15.38;57.19
25638;BME280;13496;51.040;13.680;2023-12-04T02:37:06;100258.16;;;15.37;57.31
25638;BME280;13496;51.040;13.680;2023-12-04T02:42:11;100239.03;;;15.36;57.32
25638;BME280;13496;51.040;13.680;2023-12-04T02:47:15;100237.25;;;15.37;57.31
25638;BME280;13496;51.040;13.680;2023-12-04T02:52:17;100220.06;;;15.34;57.29
25638;BME280;13496;51.040;13.680;2023-12-04T02:57:18;100206.16;;;15.34;57.49
25638;BME280;13496;51.040;13.680;2023-12-04T03:02:20;100199.16;;;15.34;57.31
25638;BME280;13496;51.040;13.680;2023-12-04T03:07:22;100197.69;;;15.32;57.21
25638;BME280;13496;51.040;13.680;2023-12-04T03:12:25;100188.03;;;15.32;57.31
25638;BME280;13496;51.040;13.680;2023-12-04T03:17:27;100196.69;;;15.33;57.20
25638;BME280;13496;51.040;13.680;2023-12-04T03:22:29;100196.69;;;15.33;57.18
25638;BME280;13496;51.040;13.680;2023-12-04T03:27:31;100189.00;;;15.31;57.18
25638;BME280;13496;51.040;13.680;2023-12-04T03:32:33;100182.94;;;15.31;57.20
25638;BME280;13496;51.040;13.680;2023-12-04T03:37:36;100185.56;;;15.31;57.34
25638;BME280;13496;51.040;13.680;2023-12-04T03:42:38;100174.28;;;15.30;57.12
25638;BME280;13496;51.040;13.680;2023-12-04T03:47:40;100174.28;;;15.30;57.17
25638;BME280;13496;51.040;13.680;2023-12-04T03:52:42;100169.38;;;15.27;57.17
25638;BME280;13496;51.040;13.680;2023-12-04T03:57:44;100171.16;;;15.27;57.28
25638;BME280;13496;51.040;13.680;2023-12-04T04:02:46;100166.75;;;15.27;57.17
25638;BME280;13496;51.040;13.680;2023-12-04T04:07:48;100157.28;;;15.26;57.13
25638;BME280;13496;51.040;13.680;2023-12-04T04:12:50;100156.63;;;15.24;57.03
25638;BME280;13496;51.040;13.680;2023-12-04T04:17:52;100159.09;;;15.25;57.15
25638;BME280;13496;51.040;13.680;2023-12-04T04:22:54;100165.28;;;15.24;57.05
25638;BME280;13496;51.040;13.680;2023-12-04T04:27:55;100154.84;;;15.24;57.08
25638;BME280;13496;51.040;13.680;2023-12-04T04:32:57;100145.34;;;15.23;57.08
25638;BME280;13496;51.040;13.680;2023-12-04T04:37:59;100135.88;;;15.22;57.06
25638;BME280;13496;51.040;13.680;2023-12-04T04:43:01;100133.13;;;15.24;56.98
25638;BME280;13496;51.040;13.680;2023-12-04T04:48:03;100127.38;;;15.20;57.09
25638;BME280;13496;51.040;13.680;2023-12-04T04:53:05;100116.91;;;15.20;56.98
25638;BME280;13496;51.040;13.680;2023-12-04T04:58:06;100131.75;;;15.20;56.95
25638;BME280;13496;51.040;13.680;2023-12-04T05:03:08;100125.72;;;15.19;57.06
25638;BME280;13496;51.040;13.680;2023-12-04T05:08:10;100128.34;;;15.19;57.01
25638;BME280;13496;51.040;13.680;2023-12-04T05:13:12;100129.00;;;15.21;56.90
25638;BME280;13496;51.040;13.680;2023-12-04T05:18:14;100128.34;;;15.19;56.96
25638;BME280;13496;51.040;13.680;2023-12-04T05:23:15;100131.75;;;15.20;57.08
25638;BME280;13496;51.040;13.680;2023-12-04T05:28:17;100129.16;;;15.20;57.17
25638;BME280;13496;51.040;13.680;2023-12-04T05:38:37;100102.88;;;15.21;57.26
25638;BME280;13496;51.040;13.680;2023-12-04T05:43:38;100093.41;;;15.20;57.38
25638;BME280;13496;51.040;13.680;2023-12-04T05:48:40;100083.75;;;15.21;57.27
25638;BME280;13496;51.040;13.680;2023-12-04T05:53:42;100067.25;;;15.20;57.23
25638;BME280;13496;51.040;13.680;2023-12-04T05:58:44;100057.63;;;15.21;57.32
25638;BME280;13496;51.040;13.680;2023-12-04T06:03:45;100040.13;;;15.21;57.28
25638;BME280;13496;51.040;13.680;2023-12-04T06:08:47;100027.22;;;15.20;57.37
25638;BME280;13496;51.040;13.680;2023-12-04T06:13:49;100037.66;;;15.20;57.27
25638;BME280;13496;51.040;13.680;2023-12-04T06:18:51;100034.91;;;15.21;57.30
25638;BME280;13496;51.040;13.680;2023-12-04T06:23:54;100034.09;;;15.21;57.21
25638;BME280;13496;51.040;13.680;2023-12-04T06:28:56;100033.28;;;15.20;57.26
25638;BME280;13496;51.040;13.680;2023-12-04T06:33:58;100034.91;;;15.21;57.21
25638;BME280;13496;51.040;13.680;2023-12-04T06:39:01;100033.28;;;15.20;57.26
25638;BME280;13496;51.040;13.680;2023-12-04T06:44:06;100035.91;;;15.20;57.15
25638;BME280;13496;51.040;13.680;2023-12-04T06:49:09;100041.94;;;15.21;57.27
25638;BME280;13496;51.040;13.680;2023-12-04T06:54:11;100035.72;;;15.22;57.28
25638;BME280;13496;51.040;13.680;2023-12-04T06:59:15;100038.50;;;15.20;57.10
25638;BME280;13496;51.040;13.680;2023-12-04T07:04:16;100039.31;;;15.21;57.15
25638;BME280;13496;51.040;13.680;2023-12-04T07:09:22;100037.34;;;15.23;57.19
25638;BME280;13496;51.040;13.680;2023-12-04T07:14:24;100036.72;;;15.21;57.17
25638;BME280;13496;51.040;13.680;2023-12-04T07:19:26;100025.28;;;15.22;57.05
25638;BME280;13496;51.040;13.680;2023-12-04T07:24:28;100020.84;;;15.22;57.04
25638;BME280;13496;51.040;13.680;2023-12-04T07:29:30;100021.66;;;15.23;57.03
25638;BME280;13496;51.040;13.680;2023-12-04T07:34:32;100006.66;;;15.25;56.96
25638;BME280;13496;51.040;13.680;2023-12-04T07:39:34;100006.50;;;15.27;57.00
25638;BME280;13496;51.040;13.680;2023-12-04T07:44:35;100008.13;;;15.28;56.95
25638;BME280;13496;51.040;13.680;2023-12-04T07:49:38;100005.03;;;15.32;56.83
25638;BME280;13496;51.040;13.680;2023-12-04T07:54:40;100002.75;;;15.45;56.53
25638;BME280;13496;51.040;13.680;2023-12-04T07:59:42;99986.28;;;15.53;56.27
25638;BME280;13496;51.040;13.680;2023-12-04T08:04:44;99986.44;;;15.60;56.10
25638;BME280;13496;51.040;13.680;2023-12-04T08:09:45;99989.72;;;15.62;56.11
25638;BME280;13496;51.040;13.680;2023-12-04T08:14:47;99982.22;;;15.75;55.74
25638;BME280;13496;51.040;13.680;2023-12-04T08:19:49;99983.22;;;15.82;55.48
25638;BME280;13496;51.040;13.680;2023-12-04T08:24:51;99980.28;;;15.85;55.55
25638;BME280;13496;51.040;13.680;2023-12-04T08:29:52;99974.38;;;15.91;55.43
25638;BME280;13496;51.040;13.680;2023-12-04T08:34:54;99972.91;;;15.89;55.29
25638;BME280;13496;51.040;13.680;2023-12-04T08:39:57;99969.16;;;15.91;55.40
25638;BME280;13496;51.040;13.680;2023-12-04T08:44:58;99973.09;;;15.87;55.49
25638;BME280;13496;51.040;13.680;2023-12-04T08:50:00;99972.09;;;15.88;55.59
25638;BME280;13496;51.040;13.680;2023-12-04T08:55:03;99962.63;;;15.87;55.31
25638;BME280;13496;51.040;13.680;2023-12-04T09:00:06;99958.53;;;15.85;55.49
25638;BME280;13496;51.040;13.680;2023-12-04T09:05:10;99955.91;;;15.85;55.52
25638;BME280;13496;51.040;13.680;2023-12-04T09:10:11;99962.94;;;15.84;55.55
25638;BME280;13496;51.040;13.680;2023-12-04T09:15:13;99966.53;;;15.83;55.52
25638;BME280;13496;51.040;13.680;2023-12-04T09:20:15;99955.25;;;15.83;55.57
25638;BME280;13496;51.040;13.680;2023-12-04T09:25:17;99951.66;;;15.84;55.44
25638;BME280;13496;51.040;13.680;2023-12-04T09:30:19;99950.50;;;15.86;55.20
25638;BME280;13496;51.040;13.680;2023-12-04T09:35:21;99943.31;;;15.88;55.18
25638;BME280;13496;51.040;13.680;2023-12-04T09:40:23;99940.53;;;15.90;55.07
25638;BME280;13496;51.040;13.680;2023-12-04T09:45:26;99937.56;;;15.93;55.13
25638;BME280;13496;51.040;13.680;2023-12-04T09:50:30;99925.31;;;15.93;55.02
25638;BME280;13496;51.040;13.680;2023-12-04T09:55:32;99922.38;;;15.96;55.07
25638;BME280;13496;51.040;13.680;2023-12-04T10:00:34;99909.28;;;15.96;54.86
25638;BME280;13496;51.040;13.680;2023-12-04T10:05:36;99900.44;;;15.97;54.99
25638;BME280;13496;51.040;13.680;2023-12-04T10:10:38;99882.13;;;15.97;54.80
25638;BME280;13496;51.040;13.680;2023-12-04T10:15:47;99870.69;;;15.99;54.83
25638;BME280;13496;51.040;13.680;2023-12-04T10:20:53;99866.75;;;16.03;54.82
25638;BME280;13496;51.040;13.680;2023-12-04T10:25:59;99854.97;;;16.07;54.64
25638;BME280;13496;51.040;13.680;2023-12-04T10:31:01;99855.59;;;16.09;54.58
25638;BME280;13496;51.040;13.680;2023-12-04T10:36:04;99849.22;;;16.11;54.60
25638;BME280;13496;51.040;13.680;2023-12-04T10:41:15;99825.84;;;16.10;54.40
25638;BME280;13496;51.040;13.680;2023-12-04T10:46:17;99830.69;;;16.13;54.40
25638;BME280;13496;51.040;13.680;2023-12-04T10:51:20;99825.47;;;16.13;54.35
25638;BME280;13496;51.040;13.680;2023-12-04T10:56:45;99821.88;;;16.14;54.36
25638;BME280;13496;51.040;13.680;2023-12-04T11:01:48;99817.81;;;16.11;54.36
25638;BME280;13496;51.040;13.680;2023-12-04T11:06:54;99822.22;;;16.11;54.59
25638;BME280;13496;51.040;13.680;2023-12-04T11:12:03;99815.38;;;16.10;54.35
25638;BME280;13496;51.040;13.680;2023-12-04T11:17:08;99817.16;;;16.09;54.54
25638;BME280;13496;51.040;13.680;2023-12-04T11:22:14;99799.66;;;16.10;54.51
25638;BME280;13496;51.040;13.680;2023-12-04T11:27:17;99790.00;;;16.10;54.52
25638;BME280;13496;51.040;13.680;2023-12-04T11:32:24;99771.22;;;16.07;54.67
25638;BME280;13496;51.040;13.680;2023-12-04T11:37:31;99764.69;;;16.03;54.48
25638;BME280;13496;51.040;13.680;2023-12-04T11:42:33;99749.94;;;16.02;54.58
25638;BME280;13496;51.040;13.680;2023-12-04T11:47:51;99732.63;;;16.01;54.46
25638;BME280;13496;51.040;13.680;2023-12-04T11:52:54;99734.25;;;16.02;54.64
25638;BME280;13496;51.040;13.680;2023-12-04T11:57:56;99713.69;;;15.99;54.43
25638;BME280;13496;51.040;13.680;2023-12-04T12:03:05;99726.13;;;15.96;54.49
25638;BME280;13496;51.040;13.680;2023-12-04T12:08:10;99710.41;;;15.96;54.49
25638;BME280;13496;51.040;13.680;2023-12-04T12:13:46;99702.56;;;15.96;54.73
25638;BME280;13496;51.040;13.680;2023-12-04T12:19:31;99692.09;;;15.96;54.76
25638;BME280;13496;51.040;13.680;2023-12-04T12:24:35;99683.09;;;15.99;54.42
25638;BME280;13496;51.040;13.680;2023-12-04T12:29:38;99671.50;;;15.93;54.62
25638;BME280;13496;51.040;13.680;2023-12-04T12:34:42;99668.72;;;15.95;54.65
25638;BME280;13496;51.040;13.680;2023-12-04T12:39:50;99667.06;;;15.94;54.51
25638;BME280;13496;51.040;13.680;2023-12-04T12:45:18;99667.25;;;15.92;54.54
25638;BME280;13496;51.040;13.680;2023-12-04T12:50:19;99671.03;;;15.90;54.51
25638;BME280;13496;51.040;13.680;2023-12-04T12:55:24;99674.81;;;15.87;54.68
25638;BME280;13496;51.040;13.680;2023-12-04T13:00:27;99665.66;;;15.83;54.63
25638;BME280;13496;51.040;13.680;2023-12-04T13:05:28;99668.28;;;15.83;54.74
25638;BME280;13496;51.040;13.680;2023-12-04T13:10:30;99662.41;;;15.81;54.73
25638;BME280;13496;51.040;13.680;2023-12-04T13:15:32;99657.53;;;15.78;54.73
25638;BME280;13496;51.040;13.680;2023-12-04T13:20:34;99645.59;;;15.76;54.97
25638;BME280;13496;51.040;13.680;2023-12-04T13:25:36;99635.97;;;15.76;54.81
25638;BME280;13496;51.040;13.680;2023-12-04T13:30:37;99629.28;;;15.73;54.78
25638;BME280;13496;51.040;13.680;2023-12-04T13:35:40;99621.59;;;15.72;54.70
25638;BME280;13496;51.040;13.680;2023-12-04T13:40:42;99613.13;;;15.70;54.80
25638;BME280;13496;51.040;13.680;2023-12-04T13:45:51;99604.63;;;15.68;54.95
25638;BME280;13496;51.040;13.680;2023-12-04T13:50:54;99595.44;;;15.64;55.00
25638;BME280;13496;51.040;13.680;2023-12-04T13:55:55;99588.59;;;15.63;55.11
25638;BME280;13496;51.040;13.680;2023-12-04T14:01:04;99590.75;;;15.59;55.06
25638;BME280;13496;51.040;13.680;2023-12-04T14:06:15;99575.25;;;15.58;55.07
25638;BME280;13496;51.040;13.680;2023-12-04T14:11:17;99571.97;;;15.56;55.12
25638;BME280;13496;51.040;13.680;2023-12-04T14:16:19;99573.97;;;15.54;55.17
25638;BME280;13496;51.040;13.680;2023-12-04T14:21:21;99567.28;;;15.51;55.33
25638;BME280;13496;51.040;13.680;2023-12-04T14:26:22;99563.19;;;15.48;55.13
25638;BME280;13496;51.040;13.680;2023-12-04T14:31:24;99552.91;;;15.47;55.18
25638;BME280;13496;51.040;13.680;2023-12-04T14:36:26;99553.25;;;15.44;55.20
25638;BME280;13496;51.040;13.680;2023-12-04T14:41:28;99538.38;;;15.44;55.22
25638;BME280;13496;51.040;13.680;2023-12-04T14:46:30;99530.06;;;15.41;55.25
25638;BME280;13496;51.040;13.680;2023-12-04T14:51:32;99519.94;;;15.38;55.21
25638;BME280;13496;51.040;13.680;2023-12-04T14:56:34;99518.50;;;15.35;55.27
25638;BME280;13496;51.040;13.680;2023-12-04T15:01:38;99520.47;;;15.33;55.37
25638;BME280;13496;51.040;13.680;2023-12-04T15:06:40;99530.94;;;15.33;55.33
25638;BME280;13496;51.040;13.680;2023-12-04T15:11:44;99524.06;;;15.32;55.34
25638;BME280;13496;51.040;13.680;2023-12-04T15:16:55;99525.03;;;15.31;55.39
25638;BME280;13496;51.040;13.680;2023-12-04T15:22:02;99530.47;;;15.30;55.44
25638;BME280;13496;51.040;13.680;2023-12-04T15:27:04;99526.03;;;15.30;55.41
25638;BME280;13496;51.040;13.680;2023-12-04T15:32:07;99503.50;;;15.29;55.55
25638;BME280;13496;51.040;13.680;2023-12-04T15:37:09;99503.66;;;15.28;55.43
25638;BME280;13496;51.040;13.680;2023-12-04T15:42:11;99502.22;;;15.25;55.58
25638;BME280;13496;51.040;13.680;2023-12-04T15:47:12;99491.59;;;15.27;55.52
25638;BME280;13496;51.040;13.680;2023-12-04T15:52:14;99472.00;;;15.22;55.47
25638;BME280;13496;51.040;13.680;2023-12-04T15:57:20;99480.50;;;15.24;55.50
25638;BME280;13496;51.040;13.680;2023-12-04T16:02:22;99477.25;;;15.22;55.54
25638;BME280;13496;51.040;13.680;2023-12-04T16:07:23;99472.81;;;15.23;55.56
25638;BME280;13496;51.040;13.680;2023-12-04T16:12:25;99463.38;;;15.22;55.56
25638;BME280;13496;51.040;13.680;2023-12-04T16:17:27;99465.16;;;15.21;55.56
25638;BME280;13496;51.040;13.680;2023-12-04T16:22:29;99460.09;;;15.20;55.59
25638;BME280;13496;51.040;13.680;2023-12-04T16:27:31;99456.53;;;15.21;55.72
25638;BME280;13496;51.040;13.680;2023-12-04T16:32:33;99439.56;;;15.17;55.63
25638;BME280;13496;51.040;13.680;2023-12-04T16:37:35;99452.63;;;15.17;55.75
25638;BME280;13496;51.040;13.680;2023-12-04T16:42:38;99456.88;;;15.18;55.47
25638;BME280;13496;51.040;13.680;2023-12-04T16:47:40;99454.25;;;15.18;55.66
25638;BME280;13496;51.040;13.680;2023-12-04T16:52:42;99451.63;;;15.18;55.66
25638;BME280;13496;51.040;13.680;2023-12-04T16:57:44;99448.22;;;15.17;55.64
25638;BME280;13496;51.040;13.680;2023-12-04T17:02:46;99450.81;;;15.17;55.62
25638;BME280;13496;51.040;13.680;2023-12-04T17:07:48;99445.75;;;15.16;55.53
25638;BME280;13496;51.040;13.680;2023-12-04T17:12:50;99441.34;;;15.16;55.51
25638;BME280;13496;51.040;13.680;2023-12-04T17:17:51;99419.81;;;15.14;55.62
25638;BME280;13496;51.040;13.680;2023-12-04T17:22:53;99419.81;;;15.14;55.61
25638;BME280;13496;51.040;13.680;2023-12-04T17:27:55;99423.22;;;15.15;55.61
25638;BME280;13496;51.040;13.680;2023-12-04T17:32:57;99419.16;;;15.12;55.50
25638;BME280;13496;51.040;13.680;2023-12-04T17:38:00;99419.97;;;15.13;55.70
25638;BME280;13496;51.040;13.680;2023-12-04T17:43:03;99407.91;;;15.12;55.63
25638;BME280;13496;51.040;13.680;2023-12-04T17:48:04;99407.91;;;15.12;55.76
25638;BME280;13496;51.040;13.680;2023-12-04T17:53:07;99411.50;;;15.11;55.69
25638;BME280;13496;51.040;13.680;2023-12-04T17:58:09;99402.84;;;15.10;55.61
25638;BME280;13496;51.040;13.680;2023-12-04T18:03:11;99393.41;;;15.09;55.60
25638;BME280;13496;51.040;13.680;2023-12-04T18:08:14;99387.34;;;15.09;55.65
25638;BME280;13496;51.040;13.680;2023-12-04T18:13:16;99384.56;;;15.10;55.66
25638;BME280;13496;51.040;13.680;2023-12-04T18:18:19;99392.56;;;15.09;55.78
25638;BME280;13496;51.040;13.680;2023-12-04T18:23:20;99394.22;;;15.10;55.66
25638;BME280;13496;51.040;13.680;2023-12-04T18:28:22;99390.59;;;15.11;55.70
25638;BME280;13496;51.040;13.680;2023-12-04T18:33:25;99391.59;;;15.10;55.66
25638;BME280;13496;51.040;13.680;2023-12-04T18:38:31;99386.53;;;15.08;55.77
25638;BME280;13496;51.040;13.680;2023-12-04T18:43:38;99373.31;;;15.10;55.61
25638;BME280;13496;51.040;13.680;2023-12-04T18:48:42;99374.28;;;15.09;55.81
25638;BME280;13496;51.040;13.680;2023-12-04T18:53:46;99362.06;;;15.09;55.86
25638;BME280;13496;51.040;13.680;2023-12-04T18:58:47;99349.13;;;15.08;55.80
25638;BME280;13496;51.040;13.680;2023-12-04T19:03:49;99349.94;;;15.08;56.09
25638;BME280;13496;51.040;13.680;2023-12-04T19:08:51;99343.91;;;15.08;55.82
25638;BME280;13496;51.040;13.680;2023-12-04T19:13:53;99345.06;;;15.05;55.78
25638;BME280;13496;51.040;13.680;2023-12-04T19:18:55;99350.28;;;15.05;55.75
25638;BME280;13496;51.040;13.680;2023-12-04T19:23:57;99328.59;;;15.05;55.73
25638;BME280;13496;51.040;13.680;2023-12-04T19:28:59;99327.78;;;15.04;55.71
25638;BME280;13496;51.040;13.680;2023-12-04T19:34:00;99322.75;;;15.03;55.71
25638;BME280;13496;51.040;13.680;2023-12-04T19:39:02;99320.94;;;15.03;55.74
25638;BME280;13496;51.040;13.680;2023-12-04T19:44:04;99334.16;;;15.01;55.79
25638;BME280;13496;51.040;13.680;2023-12-04T19:49:06;99323.69;;;15.01;55.66
25638;BME280;13496;51.040;13.680;2023-12-04T19:54:08;99315.25;;;14.99;55.68
25638;BME280;13496;51.040;13.680;2023-12-04T19:59:10;99305.78;;;14.98;55.71
25638;BME280;13496;51.040;13.680;2023-12-04T20:04:15;99300.56;;;14.98;55.58
25638;BME280;13496;51.040;13.680;2023-12-04T20:09:17;99301.38;;;14.99;55.60
25638;BME280;13496;51.040;13.680;2023-12-04T20:14:18;99297.97;;;14.98;55.55
25638;BME280;13496;51.040;13.680;2023-12-04T20:19:20;99304.34;;;14.96;55.50
25638;BME280;13496;51.040;13.680;2023-12-04T20:24:22;99289.47;;;14.96;55.40
25638;BME280;13496;51.040;13.680;2023-12-04T20:29:24;99293.06;;;14.95;55.46
25638;BME280;13496;51.040;13.680;2023-12-04T20:34:25;99287.03;;;14.95;55.46
25638;BME280;13496;51.040;13.680;2023-12-04T20:39:28;99287.38;;;14.92;55.44
25638;BME280;13496;51.040;13.680;2023-12-04T20:44:30;99280.38;;;14.92;55.36
25638;BME280;13496;51.040;13.680;2023-12-04T20:49:34;99269.09;;;14.92;55.30
25638;BME280;13496;51.040;13.680;2023-12-04T20:54:35;99260.47;;;14.91;55.28
25638;BME280;13496;51.040;13.680;2023-12-04T20:59:37;99253.59;;;14.90;55.19
25638;BME280;13496;51.040;13.680;2023-12-04T21:04:39;99246.75;;;14.89;55.17
25638;BME280;13496;51.040;13.680;2023-12-04T21:09:41;99229.47;;;14.88;55.28
25638;BME280;13496;51.040;13.680;2023-12-04T21:14:43;99234.69;;;14.88;55.20
25638;BME280;13496;51.040;13.680;2023-12-04T21:19:45;99242.69;;;14.87;55.22
25638;BME280;13496;51.040;13.680;2023-12-04T21:24:47;99222.16;;;14.84;55.19
25638;BME280;13496;51.040;13.680;2023-12-04T21:29:49;99219.38;;;14.85;55.18
25638;BME280;13496;51.040;13.680;2023-12-04T21:34:50;99217.09;;;14.82;55.14
25638;BME280;13496;51.040;13.680;2023-12-04T21:39:52;99214.50;;;14.82;55.07
25638;BME280;13496;51.040;13.680;2023-12-04T21:44:54;99213.69;;;14.82;55.09
25638;BME280;13496;51.040;13.680;2023-12-04T21:49:56;99210.06;;;14.83;55.18
25638;BME280;13496;51.040;13.680;2023-12-04T21:54:57;99213.88;;;14.80;55.10
25638;BME280;13496;51.040;13.680;2023-12-04T21:59:59;99214.84;;;14.79;55.15
25638;BME280;13496;51.040;13.680;2023-12-04T22:05:01;99208.00;;;14.78;55.05
25638;BME280;13496;51.040;13.680;2023-12-04T22:10:03;99214.84;;;14.79;55.04
25638;BME280;13496;51.040;13.680;2023-12-04T22:15:06;99196.75;;;14.77;55.15
25638;BME280;13496;51.040;13.680;2023-12-04T22:20:10;99192.34;;;14.78;55.12
25638;BME280;13496;51.040;13.680;2023-12-04T22:25:12;99194.31;;;14.76;55.15
25638;BME280;13496;51.040;13.680;2023-12-04T22:30:15;99199.56;;;14.76;55.05
25638;BME280;13496;51.040;13.680;2023-12-04T22:35:17;99185.66;;;14.75;55.11
25638;BME280;13496;51.040;13.680;2023-12-04T22:40:19;99185.84;;;14.74;55.17
25638;BME280;13496;51.040;13.680;2023-12-04T22:45:22;99176.22;;;14.74;55.07
25638;BME280;13496;51.040;13.680;2023-12-04T22:50:24;99186.84;;;14.73;55.10
25638;BME280;13496;51.040;13.680;2023-12-04T22:55:26;99200.72;;;14.73;55.16
25638;BME280;13496;51.040;13.680;2023-12-04T23:00:27;99185.03;;;14.73;55.11
25638;BME280;13496;51.040;13.680;2023-12-04T23:05:30;99166.91;;;14.72;55.06
25638;BME280;13496;51.040;13.680;2023-12-04T23:10:32;99160.88;;;14.71;55.10
25638;BME280;13496;51.040;13.680;2023-12-04T23:15:34;99163.50;;;14.71;54.95
25638;BME280;13496;51.040;13.680;2023-12-04T23:20:36;99181.78;;;14.71;55.09
25638;BME280;13496;51.040;13.680;2023-12-04T23:25:39;99185.38;;;14.70;55.08
25638;BME280;13496;51.040;13.680;2023-12-04T23:30:41;99167.91;;;14.71;55.08
25638;BME280;13496;51.040;13.680;2023-12-04T23:35:44;99153.25;;;14.70;54.98
25638;BME280;13496;51.040;13.680;2023-12-04T23:40:46;99142.81;;;14.70;55.11
25638;BME280;13496;51.040;13.680;2023-12-04T23:45:48;99156.66;;;14.70;55.03
25638;BME280;13496;51.040;13.680;2023-12-04T23:50:50;99149.19;;;14.67;55.03
25638;BME280;13496;51.040;13.680;2023-12-04T23:55:52;99143.81;;;14.69;54.95
